Aérodrome :
LOGIN :

S'inscrire | Disclaimer

   EN    FR    IT 

 










Légende :    VFR   VFR Marginal   IFR   IFR Intensif   IFR Très Intensif
Visi : 
Plafond : 
>= 8 km
>= 3000ft
5 à 8 km
1000 à 3000 ft
1500m à 5 km
500 à 1000 ft
800 à 1500m
200 à 500 ft
< 800m
< 200 ft
Symboles :   Orages  Brouillard  Fortes neiges  Fortes précipitations  Vent > 20 kt
SIGMETs :   Divers  Orages  Givrage  Turbulence  Onde Orograph.  Cendres Volcan.






- Altitude de l'aérodrome : 14 ft
- Code IATA : URE


EEKE - Kuressaare

DERNIER METAR :
  • 191850Z AUTO 35003KT 9999NDV RA FEW004 OVC015 03/03 Q1003

METARs EXPIRÉS :
  • 191750Z AUTO 25003KT 170V310 6000NDV -RA BKN009 OVC011 04/03 Q1003
  • 191650Z 27006KT 220V300 9999 -RA SCT011 OVC013 03/02 Q1003 R17/290195

TAF TAF EEKE
Valide du 19 à 16h jusqu'au 19 à 22h UTC


191500Z 1916/1922 22008KT 8000 RA SCT008 BKN015
TEMPO 1916/1920 2000 SHRA BR BKN004 BKN012 SCT015CB
BECMG 1917/1919 VRB02KT



MET'MAP, la Météo Aéronautique d'un coup d'oeil ! - Copyright ORBIFLY Décembre 2007 - Disclaimer

ORBIFLY MET'MAP TEAM :

Programmation & Développement : Alexandra Zaïnal
Sur une idée originale de : Baudouin d'Aumeries
Assistance à la programmation : Marc-Olivier Méhu
Soutien technique & logistique : Manuel Goepfert

Contact : metmap@orbifly.com




SOURCES & CREDITS :

   NOAA